createdAt,value
2018-11-12T00:01:43.833Z,2.20
2018-11-12T00:04:12.130Z,2.50
2018-11-12T00:06:40.633Z,2.62
2018-11-12T00:09:09.809Z,2.00
2018-11-12T00:11:38.171Z,2.37
2018-11-12T00:14:07.050Z,1.82
2018-11-12T00:16:35.401Z,2.33
2018-11-12T00:19:03.727Z,2.22
2018-11-12T00:21:32.185Z,2.17
2018-11-12T00:24:00.489Z,2.50
2018-11-12T00:26:28.954Z,2.77
2018-11-12T00:28:57.289Z,3.87
2018-11-12T00:31:26.032Z,2.05
2018-11-12T00:33:54.927Z,2.15
2018-11-12T00:36:23.235Z,2.15
2018-11-12T00:38:51.603Z,2.12
2018-11-12T00:41:19.969Z,2.30
2018-11-12T00:43:48.303Z,2.08
2018-11-12T00:46:16.615Z,2.17
2018-11-12T00:48:46.071Z,2.35
2018-11-12T00:51:14.451Z,2.20
2018-11-12T00:53:43.478Z,2.27
2018-11-12T00:56:12.289Z,2.47
2018-11-12T00:58:40.788Z,2.12
2018-11-12T01:01:09.740Z,2.20
2018-11-12T01:03:38.114Z,1.90
2018-11-12T01:06:06.590Z,2.05
2018-11-12T01:08:35.068Z,2.40
2018-11-12T01:11:03.396Z,2.00
2018-11-12T01:13:31.751Z,2.00
2018-11-12T01:16:00.120Z,2.10
2018-11-12T01:18:28.466Z,2.05
2018-11-12T01:20:56.904Z,1.92
2018-11-12T01:23:25.284Z,2.33
2018-11-12T01:25:54.239Z,2.10
2018-11-12T01:28:22.574Z,2.40
2018-11-12T01:30:50.933Z,2.15
2018-11-12T01:33:19.846Z,2.40
2018-11-12T01:35:48.269Z,2.00
2018-11-12T01:38:16.584Z,2.00
2018-11-12T01:40:45.369Z,2.20
2018-11-12T01:43:13.739Z,1.75
2018-11-12T01:45:42.755Z,2.20
2018-11-12T01:48:11.099Z,2.05
2018-11-12T01:50:39.600Z,2.00
2018-11-12T01:53:08.001Z,1.90
2018-11-12T01:55:36.800Z,2.60
2018-11-12T01:58:05.155Z,1.98
2018-11-12T02:00:33.546Z,2.08
2018-11-12T02:03:02.522Z,1.92
2018-11-12T02:05:30.857Z,2.00
2018-11-12T02:07:59.163Z,2.02
2018-11-12T02:10:27.513Z,2.20
2018-11-12T02:12:55.848Z,2.08
2018-11-12T02:15:24.192Z,1.75
2018-11-12T02:17:52.679Z,2.22
2018-11-12T02:20:21.710Z,2.00
2018-11-12T02:22:50.763Z,1.80
2018-11-12T02:25:19.401Z,1.62
2018-11-12T02:27:47.785Z,2.22
2018-11-12T02:30:22.692Z,2.05
2018-11-12T02:32:51.163Z,2.10
2018-11-12T02:35:19.479Z,1.65
2018-11-12T02:37:48.550Z,2.00
2018-11-12T02:40:16.956Z,1.82
2018-11-12T02:42:45.339Z,2.05
2018-11-12T02:45:14.273Z,1.82
2018-11-12T02:47:43.563Z,2.10
2018-11-12T02:50:13.963Z,1.72
2018-11-12T02:52:42.423Z,1.62
2018-11-12T02:55:12.632Z,1.80
2018-11-12T02:57:41.847Z,2.15
2018-11-12T03:00:16.580Z,1.90
2018-11-12T03:02:45.836Z,1.80
2018-11-12T03:05:14.460Z,1.85
2018-11-12T03:07:42.918Z,1.70
2018-11-12T03:10:14.687Z,1.90
2018-11-12T03:12:43.239Z,1.92
2018-11-12T03:15:12.722Z,1.65
2018-11-12T03:17:41.870Z,1.57
2018-11-12T03:20:12.617Z,1.80
2018-11-12T03:22:41.033Z,1.87
2018-11-12T03:25:11.193Z,2.17
2018-11-12T03:27:40.319Z,1.70
2018-11-12T03:30:10.610Z,1.95
2018-11-12T03:32:38.924Z,1.80
2018-11-12T03:35:09.423Z,1.67
2018-11-12T03:37:37.764Z,1.72
2018-11-12T03:40:08.860Z,2.17
2018-11-12T03:42:37.180Z,3.15
2018-11-12T03:45:08.528Z,1.30
2018-11-12T03:47:37.571Z,2.33
2018-11-12T03:50:08.314Z,1.85
2018-11-12T03:52:37.486Z,1.67
2018-11-12T03:55:06.488Z,1.60
2018-11-12T03:57:34.916Z,1.65
2018-11-12T04:00:03.675Z,1.90
2018-11-12T04:02:31.991Z,1.70
2018-11-12T04:05:00.333Z,1.67
2018-11-12T04:07:29.192Z,2.15
2018-11-12T04:09:58.110Z,1.72
2018-11-12T04:12:27.249Z,1.75
2018-11-12T04:14:55.634Z,1.40
2018-11-12T04:17:24.018Z,1.40
2018-11-12T04:19:52.422Z,1.65
2018-11-12T04:22:20.771Z,1.52
2018-11-12T04:24:49.207Z,1.45
2018-11-12T04:27:17.590Z,1.72
2018-11-12T04:29:45.961Z,1.35
2018-11-12T04:32:14.304Z,1.22
2018-11-12T04:34:42.616Z,1.80
2018-11-12T04:37:10.969Z,1.47
2018-11-12T04:39:39.303Z,1.62
2018-11-12T04:42:07.616Z,1.47
2018-11-12T04:44:35.979Z,1.60
2018-11-12T04:47:04.686Z,1.82
2018-11-12T04:49:33.177Z,1.70
2018-11-12T04:52:01.644Z,1.42
2018-11-12T04:54:29.980Z,1.55
2018-11-12T04:56:58.907Z,1.60
2018-11-12T04:59:27.886Z,1.57
2018-11-12T05:01:56.236Z,1.40
2018-11-12T05:04:24.588Z,1.60
2018-11-12T05:06:52.927Z,1.30
2018-11-12T05:09:22.055Z,1.60
2018-11-12T05:11:50.411Z,1.07
2018-11-12T05:14:18.811Z,1.55
2018-11-12T05:16:47.292Z,1.15
2018-11-12T05:19:15.716Z,1.35
2018-11-12T05:21:44.071Z,1.20
2018-11-12T05:24:12.494Z,2.62
2018-11-12T05:26:40.828Z,1.65
2018-11-12T05:29:10.631Z,1.98
2018-11-12T05:31:39.759Z,2.25
2018-11-12T05:34:08.645Z,1.77
2018-11-12T05:36:37.098Z,1.50
2018-11-12T05:39:08.690Z,1.47
2018-11-12T05:41:37.047Z,4.42
2018-11-12T05:44:05.541Z,2.30
2018-11-12T05:46:33.862Z,1.40
2018-11-12T05:49:02.361Z,1.92
2018-11-12T05:51:30.757Z,1.45
2018-11-12T05:53:59.209Z,2.17
2018-11-12T05:56:27.557Z,1.77
2018-11-12T05:58:56.885Z,3.05
2018-11-12T06:01:25.292Z,1.98
2018-11-12T06:03:53.644Z,1.57
2018-11-12T06:06:22.631Z,2.67
2018-11-12T06:08:51.039Z,1.90
2018-11-12T06:11:19.376Z,2.58
2018-11-12T06:13:47.762Z,6.60
2018-11-12T06:16:16.198Z,3.65
2018-11-12T06:18:44.765Z,4.05
2018-11-12T06:21:13.317Z,3.22
2018-11-12T06:23:41.706Z,5.40
2018-11-12T06:26:10.009Z,5.60
2018-11-12T06:28:38.342Z,4.80
2018-11-12T06:31:06.720Z,3.22
2018-11-12T06:33:35.124Z,3.47
2018-11-12T06:36:03.579Z,3.00
2018-11-12T06:38:31.949Z,3.62
2018-11-12T06:41:00.922Z,4.22
2018-11-12T06:43:29.829Z,3.67
2018-11-12T06:45:58.836Z,4.65
2018-11-12T06:48:27.239Z,4.45
2018-11-12T06:50:55.770Z,3.60
2018-11-12T06:53:24.689Z,2.70
2018-11-12T06:55:52.988Z,2.77
2018-11-12T06:58:21.332Z,5.08
2018-11-12T07:00:50.313Z,2.92
2018-11-12T07:03:18.634Z,1.45
2018-11-12T07:05:46.985Z,2.37
2018-11-12T07:08:15.450Z,1.87
2018-11-12T07:10:43.853Z,2.83
2018-11-12T07:13:12.234Z,1.60
2018-11-12T07:15:40.537Z,2.35
2018-11-12T07:18:09.609Z,1.27
2018-11-12T07:20:37.982Z,2.37
2018-11-12T07:23:06.335Z,3.05
2018-11-12T07:25:35.602Z,2.22
2018-11-12T07:28:03.984Z,2.15
2018-11-12T07:30:32.435Z,1.52
2018-11-12T07:33:00.819Z,2.65
2018-11-12T07:35:29.194Z,4.90
2018-11-12T07:37:57.967Z,2.72
2018-11-12T07:40:26.427Z,2.35
2018-11-12T07:42:54.799Z,1.30
2018-11-12T07:45:24.619Z,2.02
2018-11-12T07:47:54.079Z,2.08
2018-11-12T07:50:23.778Z,1.47
2018-11-12T07:52:52.843Z,4.47
2018-11-12T07:55:23.590Z,1.77
2018-11-12T07:57:53.077Z,2.80
2018-11-12T08:00:27.550Z,2.12
2018-11-12T08:03:01.610Z,2.30
2018-11-12T08:05:29.865Z,2.67
2018-11-12T08:07:58.240Z,0.80
2018-11-12T08:10:27.208Z,2.27
2018-11-12T08:12:55.601Z,2.00
2018-11-12T08:15:24.116Z,1.10
2018-11-12T08:17:53.067Z,1.10
2018-11-12T08:20:22.931Z,1.32
2018-11-12T08:22:51.951Z,1.05
2018-11-12T08:25:21.645Z,0.80
2018-11-12T08:27:50.549Z,1.75
2018-11-12T08:30:23.388Z,1.20
2018-11-12T08:32:54.302Z,2.17
2018-11-12T08:35:22.615Z,1.90
2018-11-12T08:37:51.639Z,2.00
2018-11-12T08:40:21.407Z,1.12
2018-11-12T08:42:49.729Z,1.25
2018-11-12T08:45:18.140Z,1.40
2018-11-12T08:47:48.014Z,2.17
2018-11-12T08:50:18.176Z,0.70
2018-11-12T08:52:47.736Z,2.30
2018-11-12T08:55:18.099Z,1.15
2018-11-12T08:57:48.014Z,2.37
2018-11-12T09:00:17.555Z,1.37
2018-11-12T09:02:45.948Z,0.60
2018-11-12T09:05:15.468Z,2.15
2018-11-12T09:07:45.254Z,1.05
2018-11-12T09:10:16.567Z,1.70
2018-11-12T09:12:45.402Z,1.05
2018-11-12T09:15:14.094Z,1.35
2018-11-12T09:17:43.158Z,1.52
2018-11-12T09:20:16.591Z,1.55
2018-11-12T09:22:45.574Z,2.45
2018-11-12T09:25:15.438Z,1.42
2018-11-12T09:27:44.480Z,0.78
2018-11-12T09:30:14.954Z,0.70
2018-11-12T09:32:43.756Z,1.05
2018-11-12T09:35:14.431Z,0.93
2018-11-12T09:37:44.014Z,0.80
2018-11-12T09:40:16.178Z,1.10
2018-11-12T09:42:44.631Z,1.32
2018-11-12T09:45:13.084Z,1.90
2018-11-12T09:47:42.613Z,1.42
2018-11-12T09:50:13.580Z,2.08
2018-11-12T09:52:44.156Z,1.30
2018-11-12T09:55:13.279Z,1.55
2018-11-12T09:57:43.158Z,0.95
2018-11-12T10:00:13.686Z,1.40
2018-11-12T10:02:44.881Z,1.00
2018-11-12T10:05:13.833Z,0.95
2018-11-12T10:07:42.449Z,0.65
2018-11-12T10:10:21.375Z,1.42
2018-11-12T10:12:49.415Z,1.40
2018-11-12T10:15:18.826Z,0.68
2018-11-12T10:17:46.605Z,2.52
2018-11-12T10:20:12.399Z,3.72
2018-11-12T10:22:40.920Z,0.80
2018-11-12T10:25:09.506Z,2.77
2018-11-12T10:27:37.854Z,2.37
2018-11-12T10:30:07.217Z,0.72
2018-11-12T10:32:35.583Z,1.87
2018-11-12T10:35:03.931Z,1.20
2018-11-12T10:37:32.311Z,0.90
2018-11-12T10:40:00.633Z,0.62
2018-11-12T10:42:29.315Z,2.25
2018-11-12T10:44:57.684Z,0.98
2018-11-12T10:47:26.028Z,0.95
2018-11-12T10:49:54.853Z,0.55
2018-11-12T10:52:23.196Z,1.45
2018-11-12T10:55:04.895Z,1.20
2018-11-12T10:57:19.986Z,0.98
2018-11-12T10:59:48.445Z,1.15
2018-11-12T11:02:22.174Z,0.80
2018-11-12T11:04:50.536Z,0.80
2018-11-12T11:07:19.027Z,1.67
2018-11-12T11:09:47.391Z,1.65
2018-11-12T11:12:15.760Z,2.20
2018-11-12T11:14:44.204Z,1.05
2018-11-12T11:17:12.594Z,0.75
2018-11-12T11:19:41.054Z,1.17
2018-11-12T11:22:09.444Z,2.17
2018-11-12T11:24:38.024Z,0.82
2018-11-12T11:27:06.394Z,0.98
2018-11-12T11:29:34.748Z,0.78
2018-11-12T11:32:03.130Z,0.88
2018-11-12T11:34:32.247Z,0.70
2018-11-12T11:37:00.700Z,0.95
2018-11-12T11:39:29.228Z,1.80
2018-11-12T11:41:57.624Z,0.90
2018-11-12T11:44:25.959Z,0.70
2018-11-12T11:46:54.347Z,0.60
2018-11-12T11:49:22.691Z,1.00
2018-11-12T11:51:51.211Z,0.72
2018-11-12T11:54:19.616Z,0.70
2018-11-12T11:56:48.084Z,0.60
2018-11-12T11:59:16.639Z,0.53
2018-11-12T12:01:45.280Z,1.25
2018-11-12T12:04:13.636Z,0.88
2018-11-12T12:06:42.526Z,0.75
2018-11-12T12:09:10.995Z,0.80
2018-11-12T12:11:39.285Z,0.90
2018-11-12T12:14:07.647Z,2.83
2018-11-12T12:16:36.074Z,2.10
2018-11-12T12:19:04.450Z,1.90
2018-11-12T12:21:33.307Z,3.92
2018-11-12T12:24:01.723Z,4.12
2018-11-12T12:26:30.770Z,0.95
2018-11-12T12:28:59.181Z,1.50
2018-11-12T12:31:27.588Z,0.72
2018-11-12T12:33:56.012Z,0.50
2018-11-12T12:36:24.546Z,0.72
2018-11-12T12:38:52.884Z,1.65
2018-11-12T12:41:21.273Z,1.65
2018-11-12T12:43:49.663Z,1.42
2018-11-12T12:46:18.239Z,1.87
2018-11-12T12:48:46.689Z,1.57
2018-11-12T12:51:15.697Z,0.60
2018-11-12T12:53:44.024Z,0.70
2018-11-12T12:56:12.787Z,0.95
2018-11-12T12:58:42.404Z,1.60
2018-11-12T13:01:10.859Z,0.68
2018-11-12T13:03:39.231Z,0.72
2018-11-12T13:06:07.601Z,0.60
2018-11-12T13:08:35.979Z,0.70
2018-11-12T13:11:04.568Z,1.15
2018-11-12T13:13:33.015Z,0.88
2018-11-12T13:16:02.003Z,2.10
2018-11-12T13:18:30.386Z,0.88
2018-11-12T13:20:58.957Z,1.10
2018-11-12T13:23:27.315Z,1.80
2018-11-12T13:25:55.827Z,2.17
2018-11-12T13:28:24.343Z,1.17
2018-11-12T13:30:53.739Z,3.80
2018-11-12T13:33:22.207Z,3.42
2018-11-12T13:35:50.822Z,2.70
2018-11-12T13:38:19.217Z,1.27
2018-11-12T13:40:47.693Z,2.10
2018-11-12T13:43:16.070Z,1.85
2018-11-12T13:45:45.878Z,1.22
2018-11-12T13:48:14.470Z,2.10
2018-11-12T13:50:42.811Z,0.93
2018-11-12T13:53:11.325Z,0.78
2018-11-12T13:55:39.628Z,1.70
2018-11-12T13:58:08.513Z,0.80
2018-11-12T14:00:37.570Z,1.02
2018-11-12T14:03:06.157Z,1.57
2018-11-12T14:05:34.515Z,2.92
2018-11-12T14:08:02.882Z,1.40
2018-11-12T14:10:31.563Z,0.80
2018-11-12T14:13:00.666Z,2.00
2018-11-12T14:15:29.116Z,1.05
2018-11-12T14:17:57.742Z,0.78
2018-11-12T14:20:26.631Z,2.33
2018-11-12T14:22:54.904Z,1.77
2018-11-12T14:25:24.989Z,2.40
2018-11-12T14:27:55.061Z,1.50
2018-11-12T14:30:26.227Z,0.72
2018-11-12T14:32:55.287Z,1.00
2018-11-12T14:35:24.160Z,1.27
2018-11-12T14:37:54.032Z,2.05
2018-11-12T14:40:23.083Z,3.60
2018-11-12T14:42:51.487Z,3.95
2018-11-12T14:45:21.620Z,2.58
2018-11-12T14:47:50.584Z,1.87
2018-11-12T14:50:18.978Z,2.00
2018-11-12T14:52:48.155Z,3.20
2018-11-12T14:55:17.116Z,2.42
2018-11-12T14:57:45.486Z,1.65
2018-11-12T15:00:24.032Z,1.05
2018-11-12T15:02:52.932Z,0.62
2018-11-12T15:05:22.625Z,0.95
2018-11-12T15:07:51.229Z,2.25
2018-11-12T15:10:19.894Z,2.85
2018-11-12T15:12:49.127Z,1.60
2018-11-12T15:15:17.493Z,2.37
2018-11-12T15:17:47.090Z,1.30
2018-11-12T15:20:26.196Z,0.80
2018-11-12T15:22:54.653Z,2.65
2018-11-12T15:25:24.385Z,4.00
2018-11-12T15:27:52.849Z,1.82
2018-11-12T15:30:23.181Z,4.05
2018-11-12T15:32:52.910Z,3.80
2018-11-12T15:35:21.907Z,1.50
2018-11-12T15:37:51.014Z,2.80
2018-11-12T15:40:19.437Z,5.67
2018-11-12T15:42:47.883Z,1.95
2018-11-12T15:45:19.758Z,2.17
2018-11-12T15:47:48.651Z,2.12
2018-11-12T15:50:25.737Z,2.27
2018-11-12T15:52:54.128Z,2.42
2018-11-12T15:55:23.032Z,3.08
2018-11-12T15:57:51.690Z,2.08
2018-11-12T16:00:20.010Z,3.52
2018-11-12T16:02:48.424Z,3.58
2018-11-12T16:05:16.801Z,4.37
2018-11-12T16:07:45.189Z,2.40
2018-11-12T16:10:15.909Z,2.47
2018-11-12T16:12:44.482Z,4.78
2018-11-12T16:15:14.018Z,2.95
2018-11-12T16:17:42.428Z,4.70
2018-11-12T16:20:13.527Z,6.40
2018-11-12T16:22:42.179Z,8.18
2018-11-12T16:25:10.705Z,20.97
2018-11-12T16:27:40.466Z,10.32
2018-11-12T16:30:09.981Z,11.03
2018-11-12T16:32:38.703Z,9.78
2018-11-12T16:35:09.097Z,10.30
2018-11-12T16:37:37.469Z,6.50
2018-11-12T16:40:06.399Z,11.65
2018-11-12T16:42:34.843Z,8.68
2018-11-12T16:45:03.737Z,8.90
2018-11-12T16:47:32.375Z,7.10
2018-11-12T16:50:00.826Z,6.92
2018-11-12T16:52:29.347Z,7.65
2018-11-12T16:54:57.824Z,9.75
2018-11-12T16:57:26.577Z,13.20
2018-11-12T16:59:55.078Z,14.70
2018-11-12T17:02:23.502Z,12.55
2018-11-12T17:04:52.114Z,13.43
2018-11-12T17:07:20.477Z,14.45
2018-11-12T17:09:48.823Z,13.72
2018-11-12T17:12:17.204Z,14.65
2018-11-12T17:14:46.038Z,14.20
2018-11-12T17:17:14.428Z,14.45
2018-11-12T17:19:42.815Z,14.53
2018-11-12T17:22:11.225Z,14.00
2018-11-12T17:24:39.702Z,15.15
2018-11-12T17:27:08.080Z,15.05
2018-11-12T17:29:36.431Z,14.70
2018-11-12T17:32:05.270Z,14.33
2018-11-12T17:34:33.626Z,15.63
2018-11-12T17:37:02.038Z,13.65
2018-11-12T17:39:31.484Z,22.82
2018-11-12T17:41:59.801Z,15.53
2018-11-12T17:44:28.275Z,15.85
2018-11-12T17:46:56.653Z,14.68
2018-11-12T17:49:25.011Z,13.05
2018-11-12T17:51:53.425Z,14.43
2018-11-12T17:54:22.078Z,14.10
2018-11-12T17:56:50.691Z,12.85
2018-11-12T17:59:19.165Z,12.10
2018-11-12T18:01:47.538Z,13.62
2018-11-12T18:04:16.752Z,12.37
2018-11-12T18:06:45.127Z,11.70
2018-11-12T18:09:13.574Z,11.00
2018-11-12T18:11:41.928Z,12.03
2018-11-12T18:14:11.779Z,10.85
2018-11-12T18:16:40.686Z,10.23
2018-11-12T18:19:09.099Z,11.05
2018-11-12T18:21:37.466Z,10.55
2018-11-12T18:24:06.341Z,9.55
2018-11-12T18:26:35.065Z,10.30
2018-11-12T18:29:03.693Z,10.48
2018-11-12T18:31:32.374Z,10.13
2018-11-12T18:34:00.687Z,9.83
2018-11-12T18:36:29.028Z,8.93
2018-11-12T18:38:57.491Z,9.25
2018-11-12T18:41:25.958Z,10.63
2018-11-12T18:43:54.378Z,10.13
2018-11-12T18:46:22.943Z,9.08
2018-11-12T18:48:51.358Z,8.43
2018-11-12T18:51:19.739Z,7.28
2018-11-12T18:53:48.173Z,8.73
2018-11-12T18:56:16.619Z,8.78
2018-11-12T18:58:44.963Z,7.30
2018-11-12T19:01:13.355Z,8.35
2018-11-12T19:03:41.735Z,8.60
2018-11-12T19:06:10.203Z,7.33
2018-11-12T19:08:39.580Z,8.40
2018-11-12T19:11:08.211Z,9.33
2018-11-12T19:13:36.608Z,6.80
2018-11-12T19:16:05.541Z,5.65
2018-11-12T19:18:33.912Z,6.90
2018-11-12T19:21:02.936Z,6.12
2018-11-12T19:23:31.602Z,6.92
2018-11-12T19:25:59.980Z,6.05
2018-11-12T19:28:28.357Z,8.15
2018-11-12T19:30:56.708Z,6.03
2018-11-12T19:33:25.166Z,4.67
2018-11-12T19:35:53.933Z,7.72
2018-11-12T19:38:22.421Z,5.58
2018-11-12T19:40:50.827Z,4.75
2018-11-12T19:43:19.153Z,5.12
2018-11-12T19:45:47.585Z,4.37
2018-11-12T19:48:15.909Z,4.80
2018-11-12T19:50:44.376Z,6.35
2018-11-12T19:53:12.770Z,4.97
2018-11-12T19:55:42.487Z,4.05
2018-11-12T19:58:10.987Z,4.60
2018-11-12T20:00:40.023Z,3.87
2018-11-12T20:03:08.455Z,4.20
2018-11-12T20:05:36.976Z,3.52
2018-11-12T20:08:05.496Z,3.75
2018-11-12T20:10:33.901Z,5.47
2018-11-12T20:13:02.907Z,3.90
2018-11-12T20:15:31.345Z,3.33
2018-11-12T20:17:59.797Z,3.45
2018-11-12T20:20:30.646Z,3.60
2018-11-12T20:22:59.048Z,3.50
2018-11-12T20:25:27.436Z,3.30
2018-11-12T20:27:56.810Z,4.15
2018-11-12T20:30:28.813Z,3.08
2018-11-12T20:32:57.280Z,3.50
2018-11-12T20:35:26.461Z,3.22
2018-11-12T20:37:54.865Z,2.95
2018-11-12T20:40:23.428Z,3.10
2018-11-12T20:42:51.869Z,3.10
2018-11-12T20:45:21.173Z,2.87
2018-11-12T20:47:50.996Z,2.90
2018-11-12T20:50:20.939Z,2.87
2018-11-12T20:52:49.463Z,2.77
2018-11-12T20:55:18.365Z,2.67
2018-11-12T20:57:47.040Z,2.62
2018-11-12T21:00:17.881Z,2.77
2018-11-12T21:02:47.735Z,2.40
2018-11-12T21:05:17.529Z,2.45
2018-11-12T21:07:45.911Z,2.30
2018-11-12T21:10:15.809Z,2.52
2018-11-12T21:12:44.500Z,2.60
2018-11-12T21:15:13.777Z,3.22
2018-11-12T21:17:42.361Z,2.12
2018-11-12T21:20:13.633Z,2.58
2018-11-12T21:22:42.048Z,2.75
2018-11-12T21:25:11.776Z,2.60
2018-11-12T21:27:40.489Z,2.60
2018-11-12T21:30:16.209Z,2.40
2018-11-12T21:32:47.199Z,2.47
2018-11-12T21:35:15.801Z,2.45
2018-11-12T21:37:45.093Z,2.25
2018-11-12T21:40:15.887Z,3.50
2018-11-12T21:42:44.364Z,2.45
2018-11-12T21:45:14.175Z,1.80
2018-11-12T21:47:43.339Z,2.10
2018-11-12T21:50:13.808Z,2.00
2018-11-12T21:52:42.234Z,1.87
2018-11-12T21:55:11.487Z,1.90
2018-11-12T21:57:40.488Z,2.27
2018-11-12T22:00:15.010Z,2.77
2018-11-12T22:02:43.787Z,1.70
2018-11-12T22:05:12.258Z,2.10
2018-11-12T22:07:40.716Z,2.20
2018-11-12T22:10:11.688Z,2.70
2018-11-12T22:12:40.796Z,2.10
2018-11-12T22:15:09.554Z,1.92
2018-11-12T22:17:38.576Z,2.00
2018-11-12T22:20:08.546Z,1.80
2018-11-12T22:22:37.378Z,2.00
2018-11-12T22:25:07.710Z,2.25
2018-11-12T22:27:36.438Z,1.95
2018-11-12T22:30:05.566Z,2.58
2018-11-12T22:32:40.432Z,2.02
2018-11-12T22:35:09.690Z,1.92
2018-11-12T22:37:38.103Z,2.10
2018-11-12T22:40:08.389Z,1.95
2018-11-12T22:42:36.989Z,2.15
2018-11-12T22:45:06.676Z,1.85
2018-11-12T22:47:35.029Z,2.12
2018-11-12T22:50:03.414Z,2.00
2018-11-12T22:52:31.762Z,1.95
2018-11-12T22:55:00.114Z,1.75
2018-11-12T22:57:28.553Z,1.75
2018-11-12T22:59:57.280Z,2.33
2018-11-12T23:02:25.640Z,2.87
2018-11-12T23:04:54.192Z,1.92
2018-11-12T23:07:22.598Z,1.80
2018-11-12T23:09:51.079Z,1.70
2018-11-12T23:12:19.516Z,1.80
2018-11-12T23:14:47.820Z,1.70
2018-11-12T23:17:16.167Z,1.90
2018-11-12T23:19:44.609Z,2.00
2018-11-12T23:22:12.901Z,2.12
2018-11-12T23:24:41.311Z,2.02
2018-11-12T23:27:09.740Z,1.75
2018-11-12T23:29:38.081Z,1.92
2018-11-12T23:32:06.565Z,2.00
2018-11-12T23:34:35.049Z,1.85
2018-11-12T23:37:03.474Z,1.82
2018-11-12T23:39:31.987Z,2.00
2018-11-12T23:42:00.359Z,1.92
2018-11-12T23:44:28.737Z,2.10
2018-11-12T23:46:57.484Z,2.80
2018-11-12T23:49:25.486Z,2.77
2018-11-12T23:51:53.898Z,1.70
2018-11-12T23:54:22.385Z,1.72
2018-11-12T23:56:50.769Z,2.02
2018-11-12T23:59:19.125Z,1.80
